Time;durP1;ratioP1;P1;durP2;ratioP2;P2;SDS_P1;SDS_P2;PMS_P1;PMS_P2;Temp;Humidity;BMP_temperature;BMP_pressure;BME280_temperature;BME280_humidity;BME280_pressure;Samples;Min_cycle;Max_cycle;Signal;HPM_P1;HPM_P2
2023/11/04 00:00:28;;;;;;;18.92;17.73;;;;;;;;;;5063576;28;20024;-65
2023/11/04 00:02:54;;;;;;;15.82;14.93;;;;;;;;;;5060573;28;20020;-65
2023/11/04 00:05:20;;;;;;;18.63;17.52;;;;;;;;;;5063664;28;20116;-65
2023/11/04 00:07:45;;;;;;;16.95;15.93;;;;;;;;;;5063196;28;20574;-65
2023/11/04 00:10:12;;;;;;;17.20;16.20;;;;;;;;;;5061692;28;20031;-65
2023/11/04 00:12:37;;;;;;;17.33;16.27;;;;;;;;;;5059202;28;20184;-68
2023/11/04 00:15:04;;;;;;;17.08;16.15;;;;;;;;;;5062089;28;20040;-68
2023/11/04 00:17:29;;;;;;;19.80;18.70;;;;;;;;;;5065297;28;20123;-69
2023/11/04 00:19:54;;;;;;;16.05;15.15;;;;;;;;;;5062618;28;20526;-68
2023/11/04 00:22:20;;;;;;;16.05;15.10;;;;;;;;;;5064064;28;20044;-64
2023/11/04 00:24:49;;;;;;;16.60;15.70;;;;;;;;;;5065530;28;20048;-65
2023/11/04 00:27:14;;;;;;;15.57;14.68;;;;;;;;;;5064638;28;20036;-70
2023/11/04 00:29:40;;;;;;;17.10;15.90;;;;;;;;;;5059578;28;20177;-69
2023/11/04 00:32:05;;;;;;;17.10;16.10;;;;;;;;;;5064158;28;20093;-69
2023/11/04 00:34:32;;;;;;;17.45;16.27;;;;;;;;;;5061994;28;20389;-65
2023/11/04 00:36:58;;;;;;;17.48;16.48;;;;;;;;;;5060444;28;20033;-66
2023/11/04 00:39:23;;;;;;;18.27;17.17;;;;;;;;;;5044674;28;20033;-65
2023/11/04 00:41:49;;;;;;;17.52;16.52;;;;;;;;;;5059153;28;20064;-66
2023/11/04 00:44:14;;;;;;;16.38;15.48;;;;;;;;;;5061677;28;20047;-66
2023/11/04 00:46:40;;;;;;;18.40;17.27;;;;;;;;;;5059980;28;20093;-69
2023/11/04 00:49:05;;;;;;;18.08;17.08;;;;;;;;;;5060209;28;20033;-69
2023/11/04 00:51:30;;;;;;;17.90;16.90;;;;;;;;;;5062510;28;20703;-65
2023/11/04 00:53:56;;;;;;;16.45;15.55;;;;;;;;;;5058261;28;20033;-69
2023/11/04 00:56:21;;;;;;;17.27;16.27;;;;;;;;;;5059341;28;20024;-65
2023/11/04 00:58:46;;;;;;;17.20;16.20;;;;;;;;;;5059023;28;20040;-71
2023/11/04 01:01:12;;;;;;;16.88;15.95;;;;;;;;;;5060533;28;20115;-70
2023/11/04 01:03:37;;;;;;;15.88;14.98;;;;;;;;;;5060695;28;20086;-69
2023/11/04 01:06:03;;;;;;;15.85;14.95;;;;;;;;;;5058232;28;20036;-69
2023/11/04 01:08:28;;;;;;;17.20;16.23;;;;;;;;;;5061289;28;20399;-69
2023/11/04 01:10:54;;;;;;;17.23;16.27;;;;;;;;;;5060955;28;20036;-69
2023/11/04 01:13:19;;;;;;;16.02;15.13;;;;;;;;;;5063001;28;20043;-65
2023/11/04 01:15:45;;;;;;;16.05;15.15;;;;;;;;;;5059380;28;20041;-65
2023/11/04 01:18:10;;;;;;;16.23;15.32;;;;;;;;;;5059093;28;20060;-69
2023/11/04 01:20:35;;;;;;;18.10;17.08;;;;;;;;;;5057362;28;20470;-68
2023/11/04 01:23:01;;;;;;;16.00;15.10;;;;;;;;;;5060800;28;20041;-65
2023/11/04 01:25:26;;;;;;;16.27;15.38;;;;;;;;;;5064362;28;20091;-69
2023/11/04 01:27:51;;;;;;;16.23;15.32;;;;;;;;;;5064527;28;20048;-69
2023/11/04 01:30:17;;;;;;;15.85;14.95;;;;;;;;;;5065168;28;20123;-65
2023/11/04 01:32:42;;;;;;;16.92;16.02;;;;;;;;;;5065262;28;20059;-65
2023/11/04 01:35:08;;;;;;;18.05;17.00;;;;;;;;;;5064573;28;20036;-65
2023/11/04 01:37:33;;;;;;;16.92;16.02;;;;;;;;;;5061869;28;20051;-65
2023/11/04 01:39:58;;;;;;;18.33;17.33;;;;;;;;;;5064918;28;20074;-65
2023/11/04 01:42:25;;;;;;;17.90;16.80;;;;;;;;;;5063528;28;20059;-69
2023/11/04 01:44:50;;;;;;;19.38;18.17;;;;;;;;;;5063892;28;20036;-69
2023/11/04 01:47:16;;;;;;;18.58;17.50;;;;;;;;;;5063625;28;20131;-69
2023/11/04 01:49:42;;;;;;;16.30;15.40;;;;;;;;;;5064136;28;20102;-66
2023/11/04 01:52:08;;;;;;;18.48;17.48;;;;;;;;;;5063091;28;20041;-65
2023/11/04 01:54:34;;;;;;;18.58;17.55;;;;;;;;;;5062450;28;20035;-68
2023/11/04 01:57:00;;;;;;;16.98;16.02;;;;;;;;;;5064942;28;20045;-69
2023/11/04 01:59:27;;;;;;;18.23;17.20;;;;;;;;;;5060293;28;20092;-69
2023/11/04 02:01:53;;;;;;;16.88;15.98;;;;;;;;;;5063659;28;20051;-65
2023/11/04 02:04:18;;;;;;;17.58;16.42;;;;;;;;;;5062701;28;20124;-66
2023/11/04 02:06:44;;;;;;;17.10;16.10;;;;;;;;;;5059996;28;20060;-66
2023/11/04 02:09:11;;;;;;;17.92;16.92;;;;;;;;;;5063765;28;20102;-68
2023/11/04 02:11:36;;;;;;;16.85;15.95;;;;;;;;;;5062739;28;20036;-69
2023/11/04 02:14:03;;;;;;;18.00;16.92;;;;;;;;;;5060777;28;20466;-65
2023/11/04 02:16:29;;;;;;;16.20;15.30;;;;;;;;;;5062467;28;20043;-65
2023/11/04 02:18:55;;;;;;;16.70;15.80;;;;;;;;;;5066940;28;20035;-69
2023/11/04 02:21:21;;;;;;;17.88;16.88;;;;;;;;;;5064089;28;20028;-70
2023/11/04 02:23:46;;;;;;;17.23;16.23;;;;;;;;;;5065078;28;20063;-66
2023/11/04 02:26:12;;;;;;;16.50;15.40;;;;;;;;;;5061054;28;20041;-69
2023/11/04 02:28:38;;;;;;;18.10;17.10;;;;;;;;;;5065538;28;20025;-68
2023/11/04 02:31:03;;;;;;;17.00;16.00;;;;;;;;;;5063163;28;20036;-69
2023/11/04 02:33:29;;;;;;;16.38;15.48;;;;;;;;;;5062935;28;20408;-65
2023/11/04 02:35:54;;;;;;;17.75;16.75;;;;;;;;;;5061111;28;20518;-66
2023/11/04 02:38:20;;;;;;;17.45;16.45;;;;;;;;;;5063684;28;20041;-65
2023/11/04 02:40:45;;;;;;;15.68;14.77;;;;;;;;;;5062210;28;20098;-65
2023/11/04 02:43:11;;;;;;;16.58;15.63;;;;;;;;;;5060334;28;20064;-68
2023/11/04 02:45:36;;;;;;;15.45;14.55;;;;;;;;;;5063520;28;20040;-67
2023/11/04 02:48:02;;;;;;;16.15;15.00;;;;;;;;;;5061899;28;20046;-68
2023/11/04 02:50:28;;;;;;;16.13;15.23;;;;;;;;;;5063536;28;20036;-65
2023/11/04 02:52:53;;;;;;;16.58;15.68;;;;;;;;;;5060719;28;20040;-68
2023/11/04 02:55:19;;;;;;;16.40;15.40;;;;;;;;;;5061912;28;20041;-68
2023/11/04 02:57:44;;;;;;;18.05;16.75;;;;;;;;;;5063610;28;20029;-66
2023/11/04 03:00:11;;;;;;;16.73;15.82;;;;;;;;;;5058490;28;20646;-66
2023/11/04 03:02:36;;;;;;;15.95;15.05;;;;;;;;;;5062638;28;20047;-65
2023/11/04 03:05:04;;;;;;;16.67;15.57;;;;;;;;;;5061974;28;20987;-68
2023/11/04 03:07:29;;;;;;;16.10;15.20;;;;;;;;;;5061983;28;20040;-67
2023/11/04 03:09:55;;;;;;;16.92;15.93;;;;;;;;;;5065869;28;20036;-69
2023/11/04 03:12:20;;;;;;;15.85;14.95;;;;;;;;;;5061442;28;20029;-64
2023/11/04 03:14:46;;;;;;;16.05;15.15;;;;;;;;;;5060830;28;20024;-65
2023/11/04 03:17:11;;;;;;;17.30;16.30;;;;;;;;;;5058923;28;20564;-66
2023/11/04 03:19:37;;;;;;;15.55;14.68;;;;;;;;;;5059769;28;20166;-68
2023/11/04 03:22:02;;;;;;;16.67;15.68;;;;;;;;;;5059311;28;20040;-65
2023/11/04 03:24:28;;;;;;;15.75;14.85;;;;;;;;;;5061245;28;20061;-65
2023/11/04 03:26:53;;;;;;;16.40;15.50;;;;;;;;;;5061206;28;20090;-65
2023/11/04 03:29:19;;;;;;;19.00;17.88;;;;;;;;;;5061394;28;20033;-68
2023/11/04 03:31:44;;;;;;;16.25;15.35;;;;;;;;;;5062302;28;20040;-68
2023/11/04 03:34:09;;;;;;;17.05;16.05;;;;;;;;;;5058665;28;21631;-69
2023/11/04 03:36:35;;;;;;;16.10;15.20;;;;;;;;;;5060655;28;20132;-69
2023/11/04 03:39:01;;;;;;;15.82;14.93;;;;;;;;;;5059094;28;20170;-68
2023/11/04 03:41:26;;;;;;;18.85;17.33;;;;;;;;;;5061405;28;20726;-68
2023/11/04 03:43:51;;;;;;;15.68;14.77;;;;;;;;;;5056898;28;20044;-69
2023/11/04 03:46:17;;;;;;;17.50;16.50;;;;;;;;;;5058162;28;20037;-69
2023/11/04 03:48:43;;;;;;;17.15;16.15;;;;;;;;;;5061000;28;20077;-68
2023/11/04 03:51:08;;;;;;;16.13;15.23;;;;;;;;;;5059090;28;20470;-65
2023/11/04 03:53:34;;;;;;;15.52;14.63;;;;;;;;;;5060482;28;20028;-69
2023/11/04 03:56:01;;;;;;;16.52;15.45;;;;;;;;;;5058477;28;20028;-68
2023/11/04 03:58:26;;;;;;;16.90;15.90;;;;;;;;;;5064144;28;20136;-68
2023/11/04 04:00:52;;;;;;;15.65;14.75;;;;;;;;;;5060967;28;20413;-66
2023/11/04 04:03:17;;;;;;;16.23;15.32;;;;;;;;;;5060205;28;20509;-65
2023/11/04 04:05:42;;;;;;;15.40;14.52;;;;;;;;;;5056324;28;20782;-64
2023/11/04 04:08:08;;;;;;;16.42;15.52;;;;;;;;;;5064386;28;20101;-66
2023/11/04 04:10:33;;;;;;;17.63;16.63;;;;;;;;;;5057079;28;20044;-65
2023/11/04 04:12:59;;;;;;;17.88;16.88;;;;;;;;;;5063355;28;20032;-69
2023/11/04 04:15:24;;;;;;;16.08;15.15;;;;;;;;;;5061522;28;20029;-68
2023/11/04 04:17:49;;;;;;;16.15;15.25;;;;;;;;;;5066767;28;20031;-66
2023/11/04 04:20:20;;;;;;;16.55;15.65;;;;;;;;;;5065503;28;20040;-65
2023/11/04 04:22:46;;;;;;;16.20;15.30;;;;;;;;;;5057255;28;20096;-66
2023/11/04 04:25:11;;;;;;;19.65;18.05;;;;;;;;;;5064051;28;20040;-65
2023/11/04 04:27:37;;;;;;;15.68;14.77;;;;;;;;;;5058114;28;20501;-69
2023/11/04 04:30:04;;;;;;;17.13;16.15;;;;;;;;;;5058452;28;20121;-69
2023/11/04 04:32:30;;;;;;;17.00;16.05;;;;;;;;;;5061788;28;20020;-68
2023/11/04 04:34:55;;;;;;;17.85;16.85;;;;;;;;;;5060202;28;20020;-68
2023/11/04 04:37:21;;;;;;;17.27;16.30;;;;;;;;;;5057284;28;20048;-68
2023/11/04 04:39:46;;;;;;;16.85;15.93;;;;;;;;;;5060640;28;20111;-67
2023/11/04 04:42:12;;;;;;;18.02;16.83;;;;;;;;;;5064258;28;20448;-68
2023/11/04 04:44:37;;;;;;;16.30;15.20;;;;;;;;;;5063339;28;20048;-68
2023/11/04 04:47:03;;;;;;;17.65;16.65;;;;;;;;;;5061837;28;20036;-65
2023/11/04 04:49:28;;;;;;;15.98;15.07;;;;;;;;;;5056239;28;20033;-65
2023/11/04 04:51:54;;;;;;;17.25;16.27;;;;;;;;;;5058902;28;20117;-65
2023/11/04 04:54:19;;;;;;;18.17;16.38;;;;;;;;;;5059895;28;20033;-68
2023/11/04 04:56:46;;;;;;;18.85;17.70;;;;;;;;;;5060955;28;20036;-68
2023/11/04 04:59:12;;;;;;;15.95;15.05;;;;;;;;;;5060995;28;20121;-65
2023/11/04 05:01:37;;;;;;;17.00;16.08;;;;;;;;;;5063540;28;20099;-65
2023/11/04 05:04:03;;;;;;;16.58;15.68;;;;;;;;;;5067829;28;20040;-66
2023/11/04 05:06:28;;;;;;;16.73;15.73;;;;;;;;;;5063596;28;20032;-66
2023/11/04 05:08:55;;;;;;;16.30;15.40;;;;;;;;;;5062636;28;20063;-65
2023/11/04 05:11:21;;;;;;;17.00;16.02;;;;;;;;;;5060106;28;20040;-66
2023/11/04 05:13:46;;;;;;;16.27;15.27;;;;;;;;;;5064503;28;20047;-69
2023/11/04 05:16:12;;;;;;;17.33;16.25;;;;;;;;;;5065514;28;20681;-69
2023/11/04 05:18:37;;;;;;;17.35;16.38;;;;;;;;;;5064064;28;20115;-65
2023/11/04 05:21:03;;;;;;;16.50;15.60;;;;;;;;;;5060464;28;20025;-65
2023/11/04 05:23:31;;;;;;;16.50;15.55;;;;;;;;;;5063729;28;20105;-65
2023/11/04 05:25:57;;;;;;;17.63;16.63;;;;;;;;;;5060148;28;20029;-70
2023/11/04 05:28:24;;;;;;;16.55;15.65;;;;;;;;;;5065251;28;20032;-69
2023/11/04 05:30:49;;;;;;;16.90;16.00;;;;;;;;;;5063026;28;20065;-70
2023/11/04 05:33:16;;;;;;;16.27;15.38;;;;;;;;;;5064186;28;20048;-69
2023/11/04 05:35:42;;;;;;;16.40;15.50;;;;;;;;;;5063864;28;20085;-68
2023/11/04 05:38:08;;;;;;;17.88;16.83;;;;;;;;;;5061947;28;20159;-69
2023/11/04 05:40:34;;;;;;;16.88;15.95;;;;;;;;;;5061672;28;20039;-70
2023/11/04 05:42:59;;;;;;;16.98;16.02;;;;;;;;;;5062284;28;20025;-68
2023/11/04 05:45:25;;;;;;;17.33;16.33;;;;;;;;;;5062140;28;20127;-65
2023/11/04 05:47:50;;;;;;;16.83;15.93;;;;;;;;;;5067319;28;20047;-66
2023/11/04 05:50:16;;;;;;;16.75;15.85;;;;;;;;;;5064111;28;20040;-65
2023/11/04 05:52:43;;;;;;;16.60;15.70;;;;;;;;;;5063775;28;20041;-65
2023/11/04 05:55:12;;;;;;;17.15;16.15;;;;;;;;;;5063837;28;20032;-66
2023/11/04 05:57:38;;;;;;;16.92;16.00;;;;;;;;;;5058812;28;20025;-65
2023/11/04 06:00:11;;;;;;;17.90;16.90;;;;;;;;;;5076388;28;20021;-68
2023/11/04 06:02:40;;;;;;;17.50;16.50;;;;;;;;;;5062529;28;20024;-65
2023/11/04 06:05:09;;;;;;;17.10;16.10;;;;;;;;;;5065676;28;20024;-65
2023/11/04 06:07:36;;;;;;;17.85;16.85;;;;;;;;;;5062162;28;20125;-66
2023/11/04 06:10:02;;;;;;;16.45;15.55;;;;;;;;;;5065530;28;20347;-65
2023/11/04 06:12:27;;;;;;;16.27;15.38;;;;;;;;;;5064405;28;20047;-69
2023/11/04 06:14:52;;;;;;;16.52;15.52;;;;;;;;;;5069133;28;20028;-69
2023/11/04 06:17:18;;;;;;;16.77;15.88;;;;;;;;;;5064272;28;20043;-65
2023/11/04 06:19:43;;;;;;;18.52;17.45;;;;;;;;;;5063455;28;20028;-65
2023/11/04 06:22:08;;;;;;;15.73;14.82;;;;;;;;;;5060291;28;20041;-65
2023/11/04 06:24:38;;;;;;;16.10;15.20;;;;;;;;;;5063600;28;20097;-65
2023/11/04 06:27:04;;;;;;;17.35;16.10;;;;;;;;;;5065490;28;20034;-69
2023/11/04 06:29:30;;;;;;;15.43;14.52;;;;;;;;;;5061368;28;20039;-66
2023/11/04 06:31:55;;;;;;;15.95;15.05;;;;;;;;;;5062317;28;20063;-65
2023/11/04 06:34:20;;;;;;;17.83;16.83;;;;;;;;;;5059277;28;20071;-71
2023/11/04 06:36:46;;;;;;;16.13;15.23;;;;;;;;;;5058935;28;20028;-73
2023/11/04 06:39:11;;;;;;;16.23;15.32;;;;;;;;;;5062608;28;20036;-65
2023/11/04 06:41:37;;;;;;;17.05;16.15;;;;;;;;;;5062643;28;20025;-70
2023/11/04 06:44:03;;;;;;;17.48;16.50;;;;;;;;;;5065795;28;20040;-72
2023/11/04 06:46:28;;;;;;;16.40;15.50;;;;;;;;;;5063692;28;20142;-71
2023/11/04 06:48:54;;;;;;;15.93;15.02;;;;;;;;;;5062632;28;20025;-66
2023/11/04 06:51:19;;;;;;;16.98;16.00;;;;;;;;;;5060436;28;20043;-72
2023/11/04 06:53:45;;;;;;;15.65;14.75;;;;;;;;;;5061424;28;20090;-67
2023/11/04 06:56:10;;;;;;;16.20;15.30;;;;;;;;;;5057726;28;20088;-66
2023/11/04 06:58:36;;;;;;;17.23;16.23;;;;;;;;;;5063829;28;20036;-66
2023/11/04 07:01:01;;;;;;;16.27;15.38;;;;;;;;;;5060289;28;20040;-66
2023/11/04 07:03:29;;;;;;;17.13;16.13;;;;;;;;;;5063184;28;20056;-72
2023/11/04 07:05:55;;;;;;;16.30;15.40;;;;;;;;;;5062972;28;20031;-73
2023/11/04 07:08:20;;;;;;;15.52;14.63;;;;;;;;;;5059227;28;20041;-72
2023/11/04 07:10:46;;;;;;;15.93;15.02;;;;;;;;;;5061149;28;20029;-72
2023/11/04 07:13:14;;;;;;;17.52;16.52;;;;;;;;;;5061333;28;20036;-65
2023/11/04 07:15:45;;;;;;;17.08;16.17;;;;;;;;;;5057222;28;20027;-72
2023/11/04 07:18:12;;;;;;;16.38;15.48;;;;;;;;;;5061421;28;20119;-70
2023/11/04 07:20:38;;;;;;;16.67;15.77;;;;;;;;;;5057210;28;20029;-69
2023/11/04 07:23:04;;;;;;;15.75;14.85;;;;;;;;;;5060088;28;20518;-68
2023/11/04 07:25:30;;;;;;;17.13;16.17;;;;;;;;;;5060034;28;20091;-74
2023/11/04 07:27:58;;;;;;;17.60;16.60;;;;;;;;;;5062198;28;20035;-71
2023/11/04 07:30:24;;;;;;;15.52;14.63;;;;;;;;;;5064365;28;20044;-72
2023/11/04 07:32:49;;;;;;;16.60;15.70;;;;;;;;;;5061449;28;20028;-65
2023/11/04 07:35:15;;;;;;;16.20;15.30;;;;;;;;;;5064378;28;20363;-67
2023/11/04 07:37:40;;;;;;;16.40;15.50;;;;;;;;;;5057687;28;20359;-68
2023/11/04 07:40:07;;;;;;;17.35;16.38;;;;;;;;;;5064230;28;20335;-67
2023/11/04 07:42:33;;;;;;;15.65;14.75;;;;;;;;;;5066508;28;20024;-73
2023/11/04 07:44:59;;;;;;;16.70;15.80;;;;;;;;;;5061074;28;20033;-71
2023/11/04 07:47:24;;;;;;;16.92;16.00;;;;;;;;;;5058202;28;20036;-71
2023/11/04 07:49:51;;;;;;;17.73;16.73;;;;;;;;;;5059294;28;20032;-66
2023/11/04 07:52:16;;;;;;;15.85;14.95;;;;;;;;;;5058538;28;20032;-66
2023/11/04 07:54:41;;;;;;;17.08;15.98;;;;;;;;;;5063050;28;20097;-67
2023/11/04 07:57:07;;;;;;;18.40;17.38;;;;;;;;;;5058561;28;20576;-66
2023/11/04 07:59:32;;;;;;;17.10;16.10;;;;;;;;;;5061608;28;20429;-67
2023/11/04 08:01:58;;;;;;;19.08;17.98;;;;;;;;;;5058280;28;20036;-68
2023/11/04 08:04:26;;;;;;;18.38;17.38;;;;;;;;;;5059956;28;20040;-68
2023/11/04 08:06:51;;;;;;;18.15;17.15;;;;;;;;;;5054846;28;20085;-68
2023/11/04 08:09:18;;;;;;;19.40;18.30;;;;;;;;;;5061062;28;20037;-65
2023/11/04 08:11:43;;;;;;;18.40;17.40;;;;;;;;;;5058538;28;20036;-66
2023/11/04 08:14:09;;;;;;;18.15;17.15;;;;;;;;;;5064183;28;20043;-65
2023/11/04 08:16:34;;;;;;;18.73;17.73;;;;;;;;;;5058951;28;20033;-68
2023/11/04 08:19:00;;;;;;;20.95;19.85;;;;;;;;;;5062658;28;20032;-67
2023/11/04 08:21:29;;;;;;;18.83;17.83;;;;;;;;;;5059639;28;20056;-66
2023/11/04 08:23:57;;;;;;;18.90;17.88;;;;;;;;;;5059644;28;20071;-66
2023/11/04 08:26:22;;;;;;;20.08;18.98;;;;;;;;;;5060804;28;20032;-67
2023/11/04 08:28:51;;;;;;;19.75;18.65;;;;;;;;;;5062335;28;20033;-67
2023/11/04 08:31:17;;;;;;;18.77;17.77;;;;;;;;;;5059420;28;20040;-66
2023/11/04 08:33:43;;;;;;;21.27;20.13;;;;;;;;;;5058908;28;20096;-66
2023/11/04 08:36:08;;;;;;;19.92;18.83;;;;;;;;;;5062023;28;20036;-66
2023/11/04 08:38:34;;;;;;;22.58;21.38;;;;;;;;;;5063891;28;20124;-67
2023/11/04 08:40:59;;;;;;;23.05;21.83;;;;;;;;;;5064490;28;20081;-66
2023/11/04 08:43:25;;;;;;;22.73;21.52;;;;;;;;;;5061856;28;20075;-67
2023/11/04 08:45:51;;;;;;;20.67;19.58;;;;;;;;;;5061892;28;20096;-66
2023/11/04 08:48:16;;;;;;;19.83;18.73;;;;;;;;;;5070214;28;20092;-67
2023/11/04 08:50:41;;;;;;;20.35;19.25;;;;;;;;;;5063080;28;20044;-66
2023/11/04 08:53:07;;;;;;;22.45;21.25;;;;;;;;;;5065257;28;20044;-66
2023/11/04 08:55:32;;;;;;;24.10;22.80;;;;;;;;;;5066189;28;20040;-67
2023/11/04 08:57:58;;;;;;;22.92;21.73;;;;;;;;;;5065300;28;20021;-67
2023/11/04 09:00:23;;;;;;;21.23;20.13;;;;;;;;;;5061792;28;20032;-67
2023/11/04 09:02:49;;;;;;;22.45;21.25;;;;;;;;;;5062922;28;20040;-64
2023/11/04 09:05:17;;;;;;;22.15;20.95;;;;;;;;;;5068889;28;20040;-66
2023/11/04 09:07:42;;;;;;;21.13;20.00;;;;;;;;;;5065970;28;20047;-66
2023/11/04 09:10:08;;;;;;;22.33;21.13;;;;;;;;;;5064041;28;20037;-65
2023/11/04 09:12:33;;;;;;;22.30;21.10;;;;;;;;;;5065977;28;20032;-66
2023/11/04 09:14:59;;;;;;;23.23;21.83;;;;;;;;;;5063612;28;20136;-66
2023/11/04 09:17:24;;;;;;;20.95;19.85;;;;;;;;;;5061365;28;20071;-67
2023/11/04 09:19:49;;;;;;;24.30;23.00;;;;;;;;;;5060423;28;20032;-67
2023/11/04 09:22:15;;;;;;;20.83;19.73;;;;;;;;;;5066516;28;20406;-66
2023/11/04 09:24:40;;;;;;;23.15;21.95;;;;;;;;;;5066118;28;20048;-65
2023/11/04 09:27:05;;;;;;;20.17;19.08;;;;;;;;;;5068195;28;20358;-64
2023/11/04 09:29:31;;;;;;;19.42;18.38;;;;;;;;;;5068457;28;20071;-66
2023/11/04 09:31:56;;;;;;;20.85;19.75;;;;;;;;;;5067676;28;20067;-67
2023/11/04 09:34:22;;;;;;;20.27;19.17;;;;;;;;;;5067538;28;20473;-64
2023/11/04 09:36:47;;;;;;;20.48;19.27;;;;;;;;;;5059498;28;20059;-65
2023/11/04 09:39:13;;;;;;;20.92;19.73;;;;;;;;;;5059522;28;20058;-65
2023/11/04 09:41:38;;;;;;;19.73;18.63;;;;;;;;;;5062730;28;20641;-67
2023/11/04 09:44:04;;;;;;;18.85;17.85;;;;;;;;;;5063471;28;20052;-65
2023/11/04 09:46:30;;;;;;;17.77;16.77;;;;;;;;;;5062412;28;20051;-67
2023/11/04 09:48:56;;;;;;;17.58;16.58;;;;;;;;;;5063442;28;20051;-66
2023/11/04 09:51:22;;;;;;;15.90;15.00;;;;;;;;;;5062938;28;20493;-66
2023/11/04 09:53:57;;;;;;;17.75;16.75;;;;;;;;;;5061864;28;20111;-65
2023/11/04 09:56:23;;;;;;;18.10;17.10;;;;;;;;;;5066318;28;20118;-67
2023/11/04 09:58:52;;;;;;;16.88;15.98;;;;;;;;;;5063929;28;20232;-68
2023/11/04 10:01:21;;;;;;;16.80;15.90;;;;;;;;;;5060426;28;20033;-72
2023/11/04 10:03:47;;;;;;;19.45;17.85;;;;;;;;;;5061526;28;20047;-67
2023/11/04 10:06:16;;;;;;;18.83;17.83;;;;;;;;;;5062205;28;20044;-68
2023/11/04 10:08:43;;;;;;;18.98;17.92;;;;;;;;;;5058008;28;20029;-66
2023/11/04 10:11:09;;;;;;;15.77;14.88;;;;;;;;;;5064304;28;20041;-74
2023/11/04 10:13:35;;;;;;;18.13;17.13;;;;;;;;;;5060302;28;20048;-66
2023/11/04 10:16:03;;;;;;;18.92;17.92;;;;;;;;;;5062895;28;20073;-68
2023/11/04 10:18:30;;;;;;;17.50;16.50;;;;;;;;;;5062499;28;20050;-73
2023/11/04 10:20:56;;;;;;;18.90;17.90;;;;;;;;;;5060807;28;20032;-72
2023/11/04 10:23:21;;;;;;;19.60;18.50;;;;;;;;;;5060775;28;20044;-71
2023/11/04 10:25:47;;;;;;;19.15;18.05;;;;;;;;;;5063089;28;20103;-75
2023/11/04 10:28:12;;;;;;;19.05;18.05;;;;;;;;;;5060400;28;20106;-73
2023/11/04 10:30:38;;;;;;;17.77;16.77;;;;;;;;;;5059127;28;20072;-75
2023/11/04 10:33:07;;;;;;;17.70;16.70;;;;;;;;;;5061244;28;20036;-74
2023/11/04 10:35:34;;;;;;;18.38;17.38;;;;;;;;;;5060488;28;20066;-72
2023/11/04 10:38:05;;;;;;;18.90;17.90;;;;;;;;;;5061203;28;20662;-74
2023/11/04 10:40:31;;;;;;;18.75;17.75;;;;;;;;;;5044470;28;20036;-67
2023/11/04 10:43:02;;;;;;;18.67;17.67;;;;;;;;;;5061191;28;20036;-69
2023/11/04 10:45:48;;;;;;;18.52;17.52;;;;;;;;;;5059255;28;20452;-69
2023/11/04 10:48:32;;;;;;;18.85;17.83;;;;;;;;;;5058148;28;20043;-74
2023/11/04 10:51:15;;;;;;;17.73;16.73;;;;;;;;;;5058864;28;20029;-69
2023/11/04 10:53:50;;;;;;;18.45;17.40;;;;;;;;;;5059879;28;20036;-71
2023/11/04 10:56:25;;;;;;;17.10;16.10;;;;;;;;;;5056982;28;20036;-74
2023/11/04 10:59:12;;;;;;;18.35;17.35;;;;;;;;;;5062224;28;20028;-70
2023/11/04 11:01:41;;;;;;;18.60;17.55;;;;;;;;;;5057332;28;20061;-71
2023/11/04 11:04:08;;;;;;;18.23;17.23;;;;;;;;;;5061622;28;20457;-71
2023/11/04 11:06:34;;;;;;;18.45;17.45;;;;;;;;;;5060834;28;20031;-68
2023/11/04 11:09:04;;;;;;;18.70;17.70;;;;;;;;;;5060843;28;20029;-65
2023/11/04 11:11:44;;;;;;;20.95;19.85;;;;;;;;;;5059838;28;20036;-65
2023/11/04 11:14:11;;;;;;;19.20;18.20;;;;;;;;;;5062802;28;20032;-72
2023/11/04 11:16:36;;;;;;;20.17;19.08;;;;;;;;;;5059144;28;20043;-72
2023/11/04 11:19:09;;;;;;;19.10;18.10;;;;;;;;;;5059565;28;20071;-76
2023/11/04 11:21:49;;;;;;;19.63;18.52;;;;;;;;;;5059054;28;20542;-72
2023/11/04 11:24:21;;;;;;;20.17;19.08;;;;;;;;;;5060326;28;20036;-70
2023/11/04 11:26:50;;;;;;;20.30;19.20;;;;;;;;;;5059190;28;20028;-72
2023/11/04 11:29:23;;;;;;;20.50;18.83;;;;;;;;;;5063240;28;20032;-69
2023/11/04 11:31:53;;;;;;;18.05;17.05;;;;;;;;;;5058979;28;20044;-64
2023/11/04 11:34:19;;;;;;;19.38;18.33;;;;;;;;;;5064024;28;20085;-73
2023/11/04 11:36:49;;;;;;;18.63;17.63;;;;;;;;;;5056264;28;20386;-71
2023/11/04 11:39:14;;;;;;;18.38;17.27;;;;;;;;;;5064131;28;20055;-70
2023/11/04 11:41:43;;;;;;;18.45;17.45;;;;;;;;;;5061135;28;20032;-70
2023/11/04 11:44:10;;;;;;;17.38;16.38;;;;;;;;;;5061854;28;20039;-71
2023/11/04 11:46:35;;;;;;;16.27;15.38;;;;;;;;;;5059996;28;20036;-69
2023/11/04 11:49:01;;;;;;;15.10;14.25;;;;;;;;;;5056715;28;20274;-71
2023/11/04 11:51:28;;;;;;;17.10;16.15;;;;;;;;;;5059704;28;20040;-74
2023/11/04 11:53:53;;;;;;;16.42;15.52;;;;;;;;;;5059424;28;20037;-72
2023/11/04 11:56:20;;;;;;;15.52;14.63;;;;;;;;;;5060130;28;20056;-70
2023/11/04 11:58:47;;;;;;;20.48;14.93;;;;;;;;;;5059828;28;20036;-65
2023/11/04 12:01:13;;;;;;;16.90;15.90;;;;;;;;;;5061808;28;20071;-71
2023/11/04 12:03:39;;;;;;;16.30;15.40;;;;;;;;;;5058704;28;20403;-70
2023/11/04 12:06:05;;;;;;;17.10;16.17;;;;;;;;;;5059048;28;20455;-71
2023/11/04 12:08:31;;;;;;;17.42;16.45;;;;;;;;;;5060953;28;20040;-65
2023/11/04 12:10:56;;;;;;;18.83;17.80;;;;;;;;;;5056475;28;20055;-66
2023/11/04 12:13:22;;;;;;;16.23;15.32;;;;;;;;;;5057995;28;20086;-66
2023/11/04 12:15:48;;;;;;;16.92;15.98;;;;;;;;;;5061390;28;20078;-66
2023/11/04 12:18:14;;;;;;;18.20;17.20;;;;;;;;;;5063760;28;20112;-65
2023/11/04 12:20:42;;;;;;;17.65;16.65;;;;;;;;;;5059838;28;20477;-65
2023/11/04 12:23:13;;;;;;;16.92;16.02;;;;;;;;;;5059592;28;20037;-65
2023/11/04 12:25:40;;;;;;;16.08;14.98;;;;;;;;;;5059488;28;20060;-65
2023/11/04 12:28:08;;;;;;;17.77;16.77;;;;;;;;;;5061005;28;20032;-74
2023/11/04 12:30:33;;;;;;;15.73;14.82;;;;;;;;;;5060063;28;20095;-65
2023/11/04 12:33:01;;;;;;;16.75;15.85;;;;;;;;;;5061097;28;20025;-65
2023/11/04 12:35:26;;;;;;;16.80;15.90;;;;;;;;;;5060047;28;20051;-65
2023/11/04 12:37:52;;;;;;;16.95;16.05;;;;;;;;;;5059511;28;20025;-72
2023/11/04 12:40:19;;;;;;;16.50;15.60;;;;;;;;;;5058288;28;20105;-65
2023/11/04 12:42:45;;;;;;;15.13;14.27;;;;;;;;;;5066441;28;20040;-72
2023/11/04 12:45:13;;;;;;;16.60;15.60;;;;;;;;;;5062869;28;20475;-66
2023/11/04 12:47:39;;;;;;;15.20;14.32;;;;;;;;;;5062582;28;20040;-72
2023/11/04 12:50:11;;;;;;;16.33;15.43;;;;;;;;;;5063018;28;20413;-72
2023/11/04 12:52:37;;;;;;;19.35;17.25;;;;;;;;;;5055915;28;20502;-72
2023/11/04 12:55:03;;;;;;;16.33;15.43;;;;;;;;;;5057857;28;20160;-71
2023/11/04 12:57:29;;;;;;;16.35;15.45;;;;;;;;;;5061923;28;20047;-70
2023/11/04 12:59:56;;;;;;;15.02;14.20;;;;;;;;;;5062511;28;20031;-71
2023/11/04 13:02:22;;;;;;;17.35;16.40;;;;;;;;;;5064796;28;20032;-71
2023/11/04 13:04:47;;;;;;;16.35;15.45;;;;;;;;;;5067645;28;20029;-72
2023/11/04 13:07:13;;;;;;;16.92;16.02;;;;;;;;;;5060058;28;20036;-72
2023/11/04 13:09:38;;;;;;;15.38;14.48;;;;;;;;;;5062580;28;20039;-71
2023/11/04 13:12:05;;;;;;;16.63;15.73;;;;;;;;;;5060200;28;20061;-71
2023/11/04 13:14:31;;;;;;;17.98;16.95;;;;;;;;;;5058205;28;20486;-73
2023/11/04 13:16:58;;;;;;;20.02;18.92;;;;;;;;;;5057537;28;20187;-73
2023/11/04 13:19:24;;;;;;;19.65;18.58;;;;;;;;;;5060517;28;20035;-75
2023/11/04 13:21:50;;;;;;;19.17;18.08;;;;;;;;;;5068975;28;20032;-71
2023/11/04 13:24:15;;;;;;;20.10;19.00;;;;;;;;;;5064082;28;20393;-74
2023/11/04 13:26:41;;;;;;;19.98;18.88;;;;;;;;;;5062528;28;20043;-71
2023/11/04 13:29:07;;;;;;;21.88;20.70;;;;;;;;;;5068064;28;20178;-68
2023/11/04 13:31:33;;;;;;;23.45;22.10;;;;;;;;;;5063792;28;20057;-68
2023/11/04 13:33:59;;;;;;;31.05;29.45;;;;;;;;;;5063181;28;20544;-69
2023/11/04 13:36:25;;;;;;;29.65;28.10;;;;;;;;;;5062506;28;20124;-68
2023/11/04 13:38:50;;;;;;;32.67;30.98;;;;;;;;;;5063419;28;20040;-68
2023/11/04 13:41:16;;;;;;;30.88;29.27;;;;;;;;;;5064692;28;20039;-69
2023/11/04 13:43:41;;;;;;;40.10;38.00;;;;;;;;;;5063291;28;20032;-69
2023/11/04 13:46:06;;;;;;;36.72;34.75;;;;;;;;;;5065645;28;20049;-64
2023/11/04 13:48:32;;;;;;;43.50;41.28;;;;;;;;;;5063785;28;20032;-69
2023/11/04 13:50:58;;;;;;;44.65;42.38;;;;;;;;;;5062060;28;20126;-63
2023/11/04 13:53:23;;;;;;;43.70;41.47;;;;;;;;;;5061881;28;20032;-69
2023/11/04 13:55:48;;;;;;;42.38;40.20;;;;;;;;;;5064667;28;20025;-71
2023/11/04 13:58:14;;;;;;;43.22;41.03;;;;;;;;;;5060360;28;20025;-70
2023/11/04 14:00:40;;;;;;;40.97;38.88;;;;;;;;;;5063582;28;20021;-70
2023/11/04 14:03:05;;;;;;;41.80;38.45;;;;;;;;;;5061842;28;20418;-69
2023/11/04 14:05:31;;;;;;;37.42;35.53;;;;;;;;;;5063031;28;20029;-70
2023/11/04 14:07:57;;;;;;;39.22;37.08;;;;;;;;;;5062539;28;20554;-67
2023/11/04 14:10:22;;;;;;;35.50;33.60;;;;;;;;;;5063585;28;20033;-68